createdAt,value
2019-02-19T00:00:35.781Z,21.77
2019-02-19T00:03:04.616Z,21.76
2019-02-19T00:05:32.995Z,21.75
2019-02-19T00:08:01.373Z,21.73
2019-02-19T00:10:30.067Z,21.73
2019-02-19T00:12:58.491Z,21.72
2019-02-19T00:15:26.861Z,21.72
2019-02-19T00:17:55.237Z,21.71
2019-02-19T00:20:23.601Z,21.70
2019-02-19T00:22:51.986Z,21.68
2019-02-19T00:25:20.351Z,21.68
2019-02-19T00:27:48.729Z,21.68
2019-02-19T00:30:17.098Z,21.67
2019-02-19T00:32:45.483Z,21.66
2019-02-19T00:35:13.869Z,21.65
2019-02-19T00:37:42.241Z,21.64
2019-02-19T00:40:10.609Z,21.64
2019-02-19T00:42:38.987Z,21.62
2019-02-19T00:45:16.311Z,21.62
2019-02-19T00:47:38.093Z,21.61
2019-02-19T00:50:06.797Z,21.60
2019-02-19T00:52:35.168Z,21.59
2019-02-19T00:55:03.912Z,21.59
2019-02-19T00:57:32.288Z,21.58
2019-02-19T01:00:00.655Z,21.57
2019-02-19T01:02:29.032Z,21.56
2019-02-19T01:04:57.402Z,21.56
2019-02-19T01:07:25.774Z,21.55
2019-02-19T01:09:54.207Z,21.54
2019-02-19T01:12:22.584Z,21.53
2019-02-19T01:14:50.957Z,21.53
2019-02-19T01:17:19.322Z,21.51
2019-02-19T01:19:47.695Z,21.51
2019-02-19T01:22:16.611Z,21.50
2019-02-19T01:24:44.971Z,21.49
2019-02-19T01:27:13.334Z,21.49
2019-02-19T01:29:41.717Z,21.47
2019-02-19T01:32:10.087Z,21.47
2019-02-19T01:34:38.460Z,21.46
2019-02-19T01:37:06.826Z,21.46
2019-02-19T01:39:35.439Z,21.45
2019-02-19T01:42:03.804Z,21.44
2019-02-19T01:44:32.245Z,21.44
2019-02-19T01:47:00.788Z,21.42
2019-02-19T01:49:29.159Z,21.42
2019-02-19T01:51:57.576Z,21.41
2019-02-19T01:54:25.970Z,21.40
2019-02-19T01:56:54.335Z,21.39
2019-02-19T01:59:22.718Z,21.39
2019-02-19T02:01:51.079Z,21.38
2019-02-19T02:04:19.460Z,21.38
2019-02-19T02:06:47.823Z,21.37
2019-02-19T02:09:16.237Z,21.35
2019-02-19T02:11:44.622Z,21.35
2019-02-19T02:14:13.013Z,21.35
2019-02-19T02:16:41.398Z,21.34
2019-02-19T02:19:09.789Z,21.33
2019-02-19T02:21:38.152Z,21.32
2019-02-19T02:24:06.785Z,21.32
2019-02-19T02:26:35.117Z,21.31
2019-02-19T02:29:03.508Z,21.31
2019-02-19T02:31:31.871Z,21.30
2019-02-19T02:34:01.196Z,21.30
2019-02-19T02:36:29.559Z,21.28
2019-02-19T02:38:57.934Z,21.29
2019-02-19T02:41:26.315Z,21.28
2019-02-19T02:43:54.684Z,21.26
2019-02-19T02:46:23.069Z,21.26
2019-02-19T02:48:51.438Z,21.26
2019-02-19T02:51:19.812Z,21.24
2019-02-19T02:53:48.190Z,21.24
2019-02-19T02:56:16.571Z,21.23
2019-02-19T02:58:44.974Z,21.22
2019-02-19T03:01:13.328Z,21.21
2019-02-19T03:03:41.699Z,21.20
2019-02-19T03:06:11.719Z,21.21
2019-02-19T03:08:40.094Z,21.20
2019-02-19T03:11:08.467Z,21.19
2019-02-19T03:13:36.828Z,21.18
2019-02-19T03:16:05.207Z,21.18
2019-02-19T03:18:33.589Z,21.17
2019-02-19T03:21:01.959Z,21.15
2019-02-19T03:23:30.338Z,21.15
2019-02-19T03:25:58.725Z,21.15
2019-02-19T03:28:27.097Z,21.13
2019-02-19T03:30:55.477Z,21.14
2019-02-19T03:33:23.863Z,21.13
2019-02-19T03:35:52.297Z,21.12
2019-02-19T03:38:20.673Z,21.11
2019-02-19T03:40:49.060Z,21.10
2019-02-19T03:43:17.457Z,21.08
2019-02-19T03:45:45.870Z,21.08
2019-02-19T03:48:14.252Z,21.10
2019-02-19T03:50:42.654Z,21.08
2019-02-19T03:53:12.862Z,21.08
2019-02-19T03:55:41.275Z,21.07
2019-02-19T03:58:09.665Z,21.07
2019-02-19T04:00:38.069Z,21.05
2019-02-19T04:03:06.465Z,21.06
2019-02-19T04:05:34.841Z,21.05
2019-02-19T04:08:03.223Z,21.03
2019-02-19T04:10:32.068Z,21.05
2019-02-19T04:13:00.448Z,21.03
2019-02-19T04:15:28.889Z,21.04
2019-02-19T04:17:57.264Z,21.03
2019-02-19T04:20:25.906Z,21.03
2019-02-19T04:22:54.297Z,21.04
2019-02-19T04:25:22.668Z,21.04
2019-02-19T04:27:51.054Z,21.03
2019-02-19T04:30:19.416Z,21.02
2019-02-19T04:32:47.789Z,21.02
2019-02-19T04:35:16.153Z,21.03
2019-02-19T04:37:44.532Z,21.03
2019-02-19T04:40:12.899Z,21.02
2019-02-19T04:42:41.278Z,21.02
2019-02-19T04:45:09.651Z,21.03
2019-02-19T04:47:38.037Z,21.02
2019-02-19T04:50:08.228Z,21.03
2019-02-19T04:52:36.609Z,21.03
2019-02-19T04:55:05.813Z,21.02
2019-02-19T04:57:34.185Z,21.02
2019-02-19T05:00:02.560Z,21.03
2019-02-19T05:02:30.927Z,21.02
2019-02-19T05:04:59.306Z,21.02
2019-02-19T05:07:27.689Z,21.03
2019-02-19T05:09:56.061Z,21.02
2019-02-19T05:12:24.433Z,21.02
2019-02-19T05:14:52.807Z,21.01
2019-02-19T05:17:21.191Z,21.02
2019-02-19T05:19:49.547Z,21.02
2019-02-19T05:22:17.926Z,21.02
2019-02-19T05:24:46.297Z,21.02
2019-02-19T05:27:14.667Z,21.02
2019-02-19T05:29:43.033Z,21.02
2019-02-19T05:32:11.415Z,21.02
2019-02-19T05:34:39.796Z,21.03
2019-02-19T05:37:08.180Z,21.02
2019-02-19T05:39:36.558Z,21.02
2019-02-19T05:42:04.933Z,21.03
2019-02-19T05:44:33.318Z,21.03
2019-02-19T05:47:01.688Z,21.03
2019-02-19T05:49:30.057Z,21.03
2019-02-19T05:51:58.437Z,21.03
2019-02-19T05:54:26.829Z,21.03
2019-02-19T05:56:55.199Z,21.04
2019-02-19T05:59:23.574Z,21.03
2019-02-19T06:01:51.970Z,21.04
2019-02-19T06:04:20.327Z,21.04
2019-02-19T06:06:48.687Z,21.04
2019-02-19T06:09:17.074Z,21.04
2019-02-19T06:11:45.444Z,21.04
2019-02-19T06:14:13.821Z,21.06
2019-02-19T06:16:42.190Z,21.04
2019-02-19T06:19:10.574Z,21.05
2019-02-19T06:21:38.947Z,21.05
2019-02-19T06:24:07.338Z,21.06
2019-02-19T06:26:35.754Z,21.05
2019-02-19T06:29:04.138Z,21.06
2019-02-19T06:31:33.311Z,21.06
2019-02-19T06:34:01.700Z,21.03
2019-02-19T06:36:30.068Z,21.06
2019-02-19T06:38:58.447Z,21.06
2019-02-19T06:41:26.875Z,21.06
2019-02-19T06:43:55.363Z,21.05
2019-02-19T06:46:23.743Z,21.05
2019-02-19T06:48:52.127Z,21.06
2019-02-19T06:51:20.484Z,21.05
2019-02-19T06:53:48.876Z,21.05
2019-02-19T06:56:17.239Z,21.07
2019-02-19T06:58:45.621Z,21.07
2019-02-19T07:01:13.992Z,21.07
2019-02-19T07:03:44.025Z,21.06
2019-02-19T07:06:12.402Z,21.07
2019-02-19T07:08:40.778Z,21.08
2019-02-19T07:11:09.150Z,21.08
2019-02-19T07:13:37.527Z,21.08
2019-02-19T07:16:05.908Z,21.08
2019-02-19T07:18:34.273Z,21.08
2019-02-19T07:21:03.707Z,21.08
2019-02-19T07:23:32.074Z,21.08
2019-02-19T07:26:00.513Z,21.09
2019-02-19T07:28:28.829Z,21.08
2019-02-19T07:30:57.207Z,21.08
2019-02-19T07:33:25.581Z,21.08
2019-02-19T07:35:53.959Z,21.07
2019-02-19T07:38:22.342Z,21.07
2019-02-19T07:40:50.726Z,21.07
2019-02-19T07:43:19.107Z,21.07
2019-02-19T07:45:47.492Z,21.07
2019-02-19T07:48:15.886Z,21.07
2019-02-19T07:50:44.307Z,21.06
2019-02-19T07:53:12.646Z,21.07
2019-02-19T07:55:41.029Z,21.08
2019-02-19T07:58:09.402Z,21.07
2019-02-19T08:00:37.778Z,21.07
2019-02-19T08:03:06.159Z,21.07
2019-02-19T08:05:34.543Z,21.07
2019-02-19T08:08:02.928Z,21.08
2019-02-19T08:10:31.305Z,21.07
2019-02-19T08:12:59.675Z,21.08
2019-02-19T08:15:28.064Z,21.06
2019-02-19T08:17:56.442Z,21.09
2019-02-19T08:20:24.827Z,21.08
2019-02-19T08:22:53.209Z,21.07
2019-02-19T08:25:21.608Z,21.08
2019-02-19T08:27:51.317Z,21.06
2019-02-19T08:30:19.963Z,21.08
2019-02-19T08:32:48.411Z,21.08
2019-02-19T08:35:16.792Z,21.07
2019-02-19T08:37:45.179Z,21.08
2019-02-19T08:40:13.551Z,21.10
2019-02-19T08:42:41.966Z,21.08
2019-02-19T08:45:10.881Z,21.08
2019-02-19T08:47:42.663Z,21.08
2019-02-19T08:50:09.506Z,21.09
2019-02-19T08:52:37.931Z,21.09
2019-02-19T08:55:07.146Z,21.08
2019-02-19T08:57:35.551Z,21.10
2019-02-19T09:00:08.252Z,21.10
2019-02-19T09:02:36.638Z,21.10
2019-02-19T09:05:06.896Z,21.12
2019-02-19T09:07:35.276Z,21.11
2019-02-19T09:10:10.133Z,21.13
2019-02-19T09:12:38.506Z,21.15
2019-02-19T09:15:11.111Z,21.17
2019-02-19T09:17:39.776Z,21.19
2019-02-19T09:20:09.265Z,21.23
2019-02-19T09:22:37.733Z,21.25
2019-02-19T09:25:08.255Z,21.30
2019-02-19T09:27:36.636Z,21.39
2019-02-19T09:30:08.082Z,21.51
2019-02-19T09:32:36.457Z,21.58
2019-02-19T09:35:06.080Z,21.61
2019-02-19T09:37:34.897Z,21.65
2019-02-19T09:40:04.238Z,21.66
2019-02-19T09:42:32.849Z,21.63
2019-02-19T09:45:01.239Z,21.61
2019-02-19T09:47:29.615Z,21.58
2019-02-19T09:49:58.077Z,21.56
2019-02-19T09:52:26.503Z,21.56
2019-02-19T09:54:54.874Z,21.54
2019-02-19T09:57:23.428Z,21.53
2019-02-19T09:59:51.867Z,21.55
2019-02-19T10:02:20.252Z,21.54
2019-02-19T10:04:48.620Z,21.54
2019-02-19T10:07:17.099Z,21.55
2019-02-19T10:09:45.542Z,21.55
2019-02-19T10:12:13.925Z,21.56
2019-02-19T10:14:42.372Z,21.57
2019-02-19T10:17:10.994Z,21.59
2019-02-19T10:19:39.386Z,21.61
2019-02-19T10:22:07.769Z,21.63
2019-02-19T10:24:36.159Z,21.59
2019-02-19T10:27:05.321Z,21.72
2019-02-19T10:29:33.705Z,21.72
2019-02-19T10:32:02.275Z,21.81
2019-02-19T10:34:30.729Z,21.98
2019-02-19T10:36:59.114Z,21.98
2019-02-19T10:39:27.486Z,22.00
2019-02-19T10:41:55.857Z,22.03
2019-02-19T10:44:24.229Z,22.05
2019-02-19T10:46:52.606Z,22.05
2019-02-19T10:49:20.994Z,22.06
2019-02-19T10:51:49.378Z,22.06
2019-02-19T10:54:17.756Z,22.08
2019-02-19T10:56:46.126Z,22.08
2019-02-19T10:59:14.506Z,22.09
2019-02-19T11:01:42.871Z,22.13
2019-02-19T11:04:11.242Z,22.22
2019-02-19T11:06:39.635Z,22.25
2019-02-19T11:09:08.080Z,22.32
2019-02-19T11:11:36.458Z,22.44
2019-02-19T11:14:05.604Z,22.55
2019-02-19T11:16:33.978Z,22.63
2019-02-19T11:19:02.467Z,22.70
2019-02-19T11:21:30.847Z,22.72
2019-02-19T11:23:59.334Z,22.75
2019-02-19T11:26:27.760Z,22.77
2019-02-19T11:28:56.257Z,22.78
2019-02-19T11:31:24.633Z,22.80
2019-02-19T11:33:53.053Z,22.77
2019-02-19T11:36:21.429Z,22.77
2019-02-19T11:38:49.878Z,22.73
2019-02-19T11:41:18.239Z,22.69
2019-02-19T11:43:46.686Z,22.63
2019-02-19T11:46:15.052Z,22.60
2019-02-19T11:48:43.501Z,22.58
2019-02-19T11:51:11.873Z,22.58
2019-02-19T11:53:40.306Z,22.59
2019-02-19T11:56:08.790Z,22.58
2019-02-19T11:58:37.169Z,22.59
2019-02-19T12:01:06.811Z,22.59
2019-02-19T12:03:36.076Z,22.58
2019-02-19T12:06:04.452Z,22.60
2019-02-19T12:08:38.882Z,22.59
2019-02-19T12:11:02.999Z,22.61
2019-02-19T12:13:31.361Z,22.61
2019-02-19T12:15:59.746Z,22.62
2019-02-19T12:18:28.137Z,22.63
2019-02-19T12:20:56.508Z,22.66
2019-02-19T12:23:24.869Z,22.66
2019-02-19T12:25:53.282Z,22.67
2019-02-19T12:28:21.604Z,22.67
2019-02-19T12:30:49.978Z,22.67
2019-02-19T12:33:18.351Z,22.68
2019-02-19T12:35:46.725Z,22.69
2019-02-19T12:38:15.085Z,22.69
2019-02-19T12:40:43.470Z,22.70
2019-02-19T12:43:11.833Z,22.71
2019-02-19T12:45:40.211Z,22.71
2019-02-19T12:48:08.586Z,22.71
2019-02-19T12:50:36.959Z,22.71
2019-02-19T12:53:05.325Z,22.70
2019-02-19T12:55:33.709Z,22.69
2019-02-19T12:58:02.076Z,22.69
2019-02-19T13:00:30.467Z,22.68
2019-02-19T13:02:58.841Z,22.69
2019-02-19T13:05:27.223Z,22.68
2019-02-19T13:07:55.623Z,22.67
2019-02-19T13:10:24.004Z,22.69
2019-02-19T13:12:52.379Z,22.69
2019-02-19T13:15:23.686Z,22.69
2019-02-19T13:17:52.069Z,22.71
2019-02-19T13:20:20.517Z,22.70
2019-02-19T13:22:48.894Z,22.72
2019-02-19T13:25:17.268Z,22.70
2019-02-19T13:27:45.644Z,22.72
2019-02-19T13:30:19.271Z,22.71
2019-02-19T13:32:47.658Z,22.71
2019-02-19T13:35:16.034Z,22.71
2019-02-19T13:37:44.415Z,22.72
2019-02-19T13:40:15.569Z,22.72
2019-02-19T13:42:43.953Z,22.70
2019-02-19T13:45:14.064Z,22.73
2019-02-19T13:47:42.686Z,22.72
2019-02-19T13:50:25.638Z,22.72
2019-02-19T13:52:58.522Z,22.73
2019-02-19T13:55:28.526Z,22.73
2019-02-19T13:57:57.574Z,22.73
2019-02-19T14:00:27.710Z,22.71
2019-02-19T14:02:56.078Z,22.73
2019-02-19T14:05:24.452Z,22.70
2019-02-19T14:07:52.838Z,22.71
2019-02-19T14:10:21.213Z,22.70
2019-02-19T14:12:49.591Z,22.71
2019-02-19T14:15:38.217Z,22.70
2019-02-19T14:18:08.833Z,22.70
2019-02-19T14:20:44.606Z,22.69
2019-02-19T14:23:17.294Z,22.69
2019-02-19T14:25:56.374Z,22.69
2019-02-19T14:28:42.909Z,22.68
2019-02-19T14:31:19.151Z,22.68
2019-02-19T14:34:05.849Z,22.67
2019-02-19T14:36:54.183Z,22.67
2019-02-19T14:39:27.265Z,22.65
2019-02-19T14:41:57.300Z,22.64
2019-02-19T14:44:42.598Z,22.63
2019-02-19T14:47:21.567Z,22.63
2019-02-19T14:49:57.315Z,22.62
2019-02-19T14:52:43.501Z,22.63
2019-02-19T14:55:19.278Z,22.62
2019-02-19T14:57:58.162Z,22.62
2019-02-19T15:00:37.265Z,22.60
2019-02-19T15:03:25.349Z,22.61
2019-02-19T15:06:11.615Z,22.59
2019-02-19T15:08:59.474Z,22.59
2019-02-19T15:11:45.759Z,22.58
2019-02-19T15:14:15.781Z,22.57
2019-02-19T15:16:57.479Z,22.56
2019-02-19T15:19:38.697Z,22.56
2019-02-19T15:22:20.300Z,22.55
2019-02-19T15:24:56.051Z,22.55
2019-02-19T15:27:28.459Z,22.54
2019-02-19T15:30:01.177Z,22.53
2019-02-19T15:32:34.104Z,22.53
2019-02-19T15:35:16.009Z,22.53
2019-02-19T15:37:46.018Z,22.53
2019-02-19T15:40:30.852Z,22.53
2019-02-19T15:43:00.875Z,22.52
2019-02-19T15:45:47.072Z,22.52
2019-02-19T15:48:23.263Z,22.52
2019-02-19T15:50:56.173Z,22.52
2019-02-19T15:53:29.092Z,22.50
2019-02-19T15:56:07.580Z,22.51
2019-02-19T15:58:43.371Z,22.49
2019-02-19T16:01:22.057Z,22.47
2019-02-19T16:03:54.697Z,22.48
2019-02-19T16:06:33.882Z,22.48
2019-02-19T16:09:20.093Z,22.48
2019-02-19T16:11:55.814Z,22.48
2019-02-19T16:14:28.584Z,22.47
2019-02-19T16:17:01.119Z,22.46
2019-02-19T16:19:33.534Z,22.46
2019-02-19T16:22:03.559Z,22.45
2019-02-19T16:24:36.284Z,22.46
2019-02-19T16:27:21.045Z,22.45
2019-02-19T16:29:53.760Z,22.44
2019-02-19T16:32:35.816Z,22.44
2019-02-19T16:35:23.150Z,22.43
2019-02-19T16:37:56.132Z,22.43
2019-02-19T16:40:26.142Z,22.41
2019-02-19T16:42:56.158Z,22.40
2019-02-19T16:45:31.865Z,22.40
2019-02-19T16:48:01.882Z,22.40
2019-02-19T16:50:34.765Z,22.39
2019-02-19T16:53:07.446Z,22.41
2019-02-19T16:55:39.850Z,22.41
2019-02-19T16:58:13.294Z,22.41
2019-02-19T17:00:43.320Z,22.42
2019-02-19T17:03:13.334Z,22.42
2019-02-19T17:05:46.304Z,22.41
2019-02-19T17:08:32.882Z,22.40
2019-02-19T17:11:05.911Z,22.39
2019-02-19T17:13:58.057Z,22.38
2019-02-19T17:16:40.269Z,22.37
2019-02-19T17:19:10.391Z,22.35
2019-02-19T17:21:57.046Z,22.34
2019-02-19T17:24:33.089Z,22.33
2019-02-19T17:27:06.053Z,22.32
2019-02-19T17:29:54.608Z,22.32
2019-02-19T17:32:24.629Z,22.31
2019-02-19T17:35:00.420Z,22.30
2019-02-19T17:37:30.513Z,22.28
2019-02-19T17:40:12.581Z,22.28
2019-02-19T17:42:42.575Z,22.26
2019-02-19T17:45:18.547Z,22.24
2019-02-19T17:47:57.643Z,22.24
2019-02-19T17:50:38.533Z,22.24
2019-02-19T17:53:05.511Z,22.22
2019-02-19T17:55:47.832Z,22.22
2019-02-19T17:58:29.708Z,22.22
2019-02-19T18:01:05.666Z,22.19
2019-02-19T18:03:41.324Z,22.17
2019-02-19T18:06:17.311Z,22.17
2019-02-19T18:08:53.256Z,22.17
2019-02-19T18:11:37.867Z,22.16
2019-02-19T18:14:26.510Z,22.17
2019-02-19T18:17:02.949Z,22.16
2019-02-19T18:19:31.541Z,22.14
2019-02-19T18:21:59.997Z,22.13
2019-02-19T18:24:28.373Z,22.12
2019-02-19T18:26:56.766Z,22.12
2019-02-19T18:29:25.237Z,22.12
2019-02-19T18:31:53.679Z,22.11
2019-02-19T18:34:22.062Z,22.11
2019-02-19T18:36:50.425Z,22.11
2019-02-19T18:39:18.805Z,22.11
2019-02-19T18:41:47.179Z,22.10
2019-02-19T18:44:15.548Z,22.10
2019-02-19T18:46:43.910Z,22.10
2019-02-19T18:49:12.287Z,22.10
2019-02-19T18:51:40.897Z,22.10
2019-02-19T18:54:09.698Z,22.09
2019-02-19T18:56:38.080Z,22.08
2019-02-19T18:59:06.461Z,22.08
2019-02-19T19:01:34.831Z,22.08
2019-02-19T19:04:03.216Z,22.08
2019-02-19T19:06:31.582Z,22.08
2019-02-19T19:08:59.968Z,22.07
2019-02-19T19:11:28.401Z,22.08
2019-02-19T19:13:56.790Z,22.08
2019-02-19T19:16:25.158Z,22.08
2019-02-19T19:18:53.763Z,22.07
2019-02-19T19:21:22.142Z,22.06
2019-02-19T19:23:50.508Z,22.06
2019-02-19T19:26:18.940Z,22.05
2019-02-19T19:28:47.328Z,22.04
2019-02-19T19:31:15.693Z,22.04
2019-02-19T19:33:44.072Z,22.03
2019-02-19T19:36:12.451Z,22.02
2019-02-19T19:38:40.827Z,22.00
2019-02-19T19:41:09.995Z,22.00
2019-02-19T19:43:38.377Z,21.98
2019-02-19T19:46:06.740Z,21.98
2019-02-19T19:48:35.128Z,21.97
2019-02-19T19:51:03.492Z,21.97
2019-02-19T19:53:31.868Z,21.95
2019-02-19T19:56:00.235Z,21.95
2019-02-19T19:58:28.616Z,21.94
2019-02-19T20:00:57.036Z,21.94
2019-02-19T20:03:25.409Z,21.93
2019-02-19T20:05:53.787Z,21.92
2019-02-19T20:08:22.172Z,21.93
2019-02-19T20:10:50.537Z,21.92
2019-02-19T20:13:18.918Z,21.90
2019-02-19T20:15:47.297Z,21.89
2019-02-19T20:18:15.672Z,21.90
2019-02-19T20:20:44.053Z,21.88
2019-02-19T20:23:12.432Z,21.87
2019-02-19T20:25:40.810Z,21.86
2019-02-19T20:28:09.196Z,21.86
2019-02-19T20:30:37.574Z,21.85
2019-02-19T20:33:06.218Z,21.84
2019-02-19T20:35:34.617Z,21.83
2019-02-19T20:38:02.994Z,21.82
2019-02-19T20:40:31.370Z,21.81
2019-02-19T20:42:59.755Z,21.80
2019-02-19T20:45:28.214Z,21.79
2019-02-19T20:47:56.578Z,21.78
2019-02-19T20:50:24.957Z,21.77
2019-02-19T20:52:53.340Z,21.76
2019-02-19T20:55:21.721Z,21.75
2019-02-19T20:57:50.100Z,21.74
2019-02-19T21:00:18.856Z,21.73
2019-02-19T21:02:47.234Z,21.72
2019-02-19T21:05:15.641Z,21.73
2019-02-19T21:07:44.040Z,21.70
2019-02-19T21:10:17.550Z,21.70
2019-02-19T21:12:45.919Z,21.69
2019-02-19T21:15:14.450Z,21.68
2019-02-19T21:17:42.813Z,21.67
2019-02-19T21:20:12.219Z,21.66
2019-02-19T21:22:40.895Z,21.66
2019-02-19T21:25:10.419Z,21.65
2019-02-19T21:27:38.805Z,21.64
2019-02-19T21:30:12.983Z,21.63
2019-02-19T21:32:42.270Z,21.62
2019-02-19T21:35:11.259Z,21.61
2019-02-19T21:37:39.644Z,21.59
2019-02-19T21:40:13.347Z,21.59
2019-02-19T21:42:41.796Z,21.59
2019-02-19T21:45:12.806Z,21.57
2019-02-19T21:47:41.196Z,21.56
2019-02-19T21:50:10.994Z,21.55
2019-02-19T21:52:39.651Z,21.54
2019-02-19T21:55:10.440Z,21.54
2019-02-19T21:57:38.821Z,21.53
2019-02-19T22:00:14.772Z,21.51
2019-02-19T22:02:43.360Z,21.49
2019-02-19T22:05:11.796Z,21.49
2019-02-19T22:07:40.182Z,21.48
2019-02-19T22:10:10.685Z,21.47
2019-02-19T22:12:39.143Z,21.45
2019-02-19T22:15:12.290Z,21.44
2019-02-19T22:17:41.445Z,21.43
2019-02-19T22:20:33.994Z,21.42
2019-02-19T22:23:02.452Z,21.40
2019-02-19T22:25:30.838Z,21.38
2019-02-19T22:27:59.213Z,21.37
2019-02-19T22:30:27.587Z,21.36
2019-02-19T22:32:55.956Z,21.35
2019-02-19T22:35:24.321Z,21.33
2019-02-19T22:37:52.697Z,21.32
2019-02-19T22:40:21.064Z,21.32
2019-02-19T22:42:49.468Z,21.30
2019-02-19T22:45:17.838Z,21.29
2019-02-19T22:47:53.141Z,21.28
2019-02-19T22:50:16.299Z,21.30
2019-02-19T22:52:44.708Z,21.28
2019-02-19T22:55:26.676Z,21.27
2019-02-19T22:57:55.049Z,21.27
2019-02-19T23:00:45.913Z,21.24
2019-02-19T23:03:14.649Z,21.24
2019-02-19T23:05:43.082Z,21.21
2019-02-19T23:08:11.701Z,21.19
2019-02-19T23:10:40.152Z,21.19
2019-02-19T23:13:08.538Z,21.18
2019-02-19T23:15:36.905Z,21.17
2019-02-19T23:18:05.294Z,21.17
2019-02-19T23:20:33.667Z,21.16
2019-02-19T23:23:02.043Z,21.14
2019-02-19T23:25:30.516Z,21.14
2019-02-19T23:27:58.900Z,21.14
2019-02-19T23:30:27.265Z,21.12
2019-02-19T23:32:55.649Z,21.12
2019-02-19T23:35:25.669Z,21.10
2019-02-19T23:37:54.045Z,21.09
2019-02-19T23:40:22.408Z,21.09
2019-02-19T23:42:50.854Z,21.07
2019-02-19T23:45:19.252Z,21.07
2019-02-19T23:47:47.644Z,21.06
2019-02-19T23:50:16.035Z,21.04
2019-02-19T23:52:44.403Z,21.03
2019-02-19T23:55:12.792Z,21.04
2019-02-19T23:57:42.082Z,21.01
